sensor_id;sensor_type;location;lat;lon;timestamp;P1;durP1;ratioP1;P2;durP2;ratioP2
22937;SDS011;11634;42.734;23.298;2022-08-18T00:00:09;5.32;;;4.82;;
22937;SDS011;11634;42.734;23.298;2022-08-18T00:02:39;9.45;;;5.22;;
22937;SDS011;11634;42.734;23.298;2022-08-18T00:05:06;7.40;;;5.35;;
22937;SDS011;11634;42.734;23.298;2022-08-18T00:07:32;9.48;;;5.30;;
22937;SDS011;11634;42.734;23.298;2022-08-18T00:09:59;8.48;;;5.63;;
22937;SDS011;11634;42.734;23.298;2022-08-18T00:12:27;7.05;;;5.15;;
22937;SDS011;11634;42.734;23.298;2022-08-18T00:14:55;6.22;;;5.30;;
22937;SDS011;11634;42.734;23.298;2022-08-18T00:17:21;9.50;;;6.03;;
22937;SDS011;11634;42.734;23.298;2022-08-18T00:19:48;8.65;;;5.82;;
22937;SDS011;11634;42.734;23.298;2022-08-18T00:22:16;7.45;;;5.80;;
22937;SDS011;11634;42.734;23.298;2022-08-18T00:24:45;10.30;;;5.97;;
22937;SDS011;11634;42.734;23.298;2022-08-18T00:27:12;7.18;;;5.60;;
22937;SDS011;11634;42.734;23.298;2022-08-18T00:29:38;6.28;;;5.78;;
22937;SDS011;11634;42.734;23.298;2022-08-18T00:32:10;7.25;;;5.70;;
22937;SDS011;11634;42.734;23.298;2022-08-18T00:34:40;8.35;;;6.32;;
22937;SDS011;11634;42.734;23.298;2022-08-18T00:37:06;6.68;;;5.82;;
22937;SDS011;11634;42.734;23.298;2022-08-18T00:39:32;7.68;;;6.20;;
22937;SDS011;11634;42.734;23.298;2022-08-18T00:42:20;6.97;;;6.35;;
22937;SDS011;11634;42.734;23.298;2022-08-18T00:44:51;7.00;;;6.25;;
22937;SDS011;11634;42.734;23.298;2022-08-18T00:47:19;8.73;;;6.95;;
22937;SDS011;11634;42.734;23.298;2022-08-18T00:49:45;9.52;;;6.60;;
22937;SDS011;11634;42.734;23.298;2022-08-18T00:52:15;7.57;;;6.63;;
22937;SDS011;11634;42.734;23.298;2022-08-18T00:54:42;8.00;;;7.30;;
22937;SDS011;11634;42.734;23.298;2022-08-18T00:57:10;7.57;;;6.88;;
22937;SDS011;11634;42.734;23.298;2022-08-18T00:59:43;9.85;;;7.47;;
22937;SDS011;11634;42.734;23.298;2022-08-18T01:02:22;8.48;;;6.78;;
22937;SDS011;11634;42.734;23.298;2022-08-18T01:04:58;8.05;;;7.30;;
22937;SDS011;11634;42.734;23.298;2022-08-18T01:07:38;7.40;;;6.70;;
22937;SDS011;11634;42.734;23.298;2022-08-18T01:10:09;7.85;;;7.13;;
22937;SDS011;11634;42.734;23.298;2022-08-18T01:12:39;8.18;;;7.03;;
22937;SDS011;11634;42.734;23.298;2022-08-18T01:15:05;7.63;;;6.68;;
22937;SDS011;11634;42.734;23.298;2022-08-18T01:17:31;7.90;;;7.28;;
22937;SDS011;11634;42.734;23.298;2022-08-18T01:20:17;8.07;;;7.25;;
22937;SDS011;11634;42.734;23.298;2022-08-18T01:23:13;9.38;;;7.20;;
22937;SDS011;11634;42.734;23.298;2022-08-18T01:25:42;7.80;;;7.10;;
22937;SDS011;11634;42.734;23.298;2022-08-18T01:28:28;8.00;;;7.20;;
22937;SDS011;11634;42.734;23.298;2022-08-18T01:30:57;8.25;;;7.45;;
22937;SDS011;11634;42.734;23.298;2022-08-18T01:33:24;8.52;;;7.55;;
22937;SDS011;11634;42.734;23.298;2022-08-18T01:35:52;8.52;;;7.70;;
22937;SDS011;11634;42.734;23.298;2022-08-18T01:38:19;9.32;;;7.90;;
22937;SDS011;11634;42.734;23.298;2022-08-18T01:40:47;7.70;;;6.95;;
22937;SDS011;11634;42.734;23.298;2022-08-18T01:43:13;8.18;;;7.38;;
22937;SDS011;11634;42.734;23.298;2022-08-18T01:45:39;8.57;;;7.68;;
22937;SDS011;11634;42.734;23.298;2022-08-18T01:48:07;8.13;;;7.35;;
22937;SDS011;11634;42.734;23.298;2022-08-18T01:50:34;9.10;;;8.30;;
22937;SDS011;11634;42.734;23.298;2022-08-18T01:53:02;8.77;;;7.95;;
22937;SDS011;11634;42.734;23.298;2022-08-18T01:55:30;7.82;;;7.13;;
22937;SDS011;11634;42.734;23.298;2022-08-18T01:58:01;9.98;;;8.98;;
22937;SDS011;11634;42.734;23.298;2022-08-18T02:00:27;8.05;;;7.30;;
22937;SDS011;11634;42.734;23.298;2022-08-18T02:02:54;8.35;;;7.53;;
22937;SDS011;11634;42.734;23.298;2022-08-18T02:05:29;9.13;;;7.70;;
22937;SDS011;11634;42.734;23.298;2022-08-18T02:07:58;8.15;;;7.43;;
22937;SDS011;11634;42.734;23.298;2022-08-18T02:10:24;7.50;;;6.80;;
22937;SDS011;11634;42.734;23.298;2022-08-18T02:12:50;9.02;;;8.23;;
22937;SDS011;11634;42.734;23.298;2022-08-18T02:15:16;8.80;;;7.97;;
22937;SDS011;11634;42.734;23.298;2022-08-18T02:17:42;8.63;;;7.47;;
22937;SDS011;11634;42.734;23.298;2022-08-18T02:20:11;8.70;;;7.75;;
22937;SDS011;11634;42.734;23.298;2022-08-18T02:22:39;8.82;;;7.97;;
22937;SDS011;11634;42.734;23.298;2022-08-18T02:25:06;9.05;;;8.20;;
22937;SDS011;11634;42.734;23.298;2022-08-18T02:27:32;8.60;;;7.78;;
22937;SDS011;11634;42.734;23.298;2022-08-18T02:29:58;8.98;;;8.00;;
22937;SDS011;11634;42.734;23.298;2022-08-18T02:32:25;8.88;;;8.07;;
22937;SDS011;11634;42.734;23.298;2022-08-18T02:34:51;8.93;;;8.02;;
22937;SDS011;11634;42.734;23.298;2022-08-18T02:37:16;8.95;;;8.15;;
22937;SDS011;11634;42.734;23.298;2022-08-18T02:39:42;9.68;;;8.60;;
22937;SDS011;11634;42.734;23.298;2022-08-18T02:42:08;9.23;;;8.35;;
22937;SDS011;11634;42.734;23.298;2022-08-18T02:44:33;9.60;;;8.50;;
22937;SDS011;11634;42.734;23.298;2022-08-18T02:46:59;8.90;;;8.00;;
22937;SDS011;11634;42.734;23.298;2022-08-18T02:49:26;12.80;;;8.30;;
22937;SDS011;11634;42.734;23.298;2022-08-18T02:51:52;8.75;;;7.90;;
22937;SDS011;11634;42.734;23.298;2022-08-18T02:54:20;9.18;;;8.35;;
22937;SDS011;11634;42.734;23.298;2022-08-18T02:56:51;9.93;;;8.20;;
22937;SDS011;11634;42.734;23.298;2022-08-18T02:59:20;9.27;;;8.32;;
22937;SDS011;11634;42.734;23.298;2022-08-18T03:01:49;9.00;;;7.95;;
22937;SDS011;11634;42.734;23.298;2022-08-18T03:04:17;8.70;;;7.88;;
22937;SDS011;11634;42.734;23.298;2022-08-18T03:06:46;8.55;;;7.72;;
22937;SDS011;11634;42.734;23.298;2022-08-18T03:09:13;10.65;;;8.30;;
22937;SDS011;11634;42.734;23.298;2022-08-18T03:11:40;9.65;;;8.77;;
22937;SDS011;11634;42.734;23.298;2022-08-18T03:14:06;9.10;;;8.20;;
22937;SDS011;11634;42.734;23.298;2022-08-18T03:16:32;11.70;;;8.70;;
22937;SDS011;11634;42.734;23.298;2022-08-18T03:18:59;9.35;;;8.48;;
22937;SDS011;11634;42.734;23.298;2022-08-18T03:21:26;10.93;;;8.98;;
22937;SDS011;11634;42.734;23.298;2022-08-18T03:23:54;10.80;;;9.18;;
22937;SDS011;11634;42.734;23.298;2022-08-18T03:26:20;9.52;;;8.63;;
22937;SDS011;11634;42.734;23.298;2022-08-18T03:28:50;8.68;;;7.97;;
22937;SDS011;11634;42.734;23.298;2022-08-18T03:31:19;8.70;;;8.00;;
22937;SDS011;11634;42.734;23.298;2022-08-18T03:33:47;9.63;;;8.60;;
22937;SDS011;11634;42.734;23.298;2022-08-18T03:36:15;10.63;;;9.52;;
22937;SDS011;11634;42.734;23.298;2022-08-18T03:38:45;11.45;;;9.48;;
22937;SDS011;11634;42.734;23.298;2022-08-18T03:41:13;11.13;;;9.50;;
22937;SDS011;11634;42.734;23.298;2022-08-18T03:43:41;10.80;;;9.80;;
22937;SDS011;11634;42.734;23.298;2022-08-18T03:46:09;10.48;;;9.48;;
22937;SDS011;11634;42.734;23.298;2022-08-18T03:48:37;11.27;;;10.13;;
22937;SDS011;11634;42.734;23.298;2022-08-18T03:51:21;10.68;;;9.70;;
22937;SDS011;11634;42.734;23.298;2022-08-18T03:53:51;13.55;;;11.32;;
22937;SDS011;11634;42.734;23.298;2022-08-18T03:56:21;12.88;;;11.30;;
22937;SDS011;11634;42.734;23.298;2022-08-18T03:58:59;15.05;;;11.30;;
22937;SDS011;11634;42.734;23.298;2022-08-18T04:01:31;13.30;;;11.93;;
22937;SDS011;11634;42.734;23.298;2022-08-18T04:03:59;13.32;;;11.35;;
22937;SDS011;11634;42.734;23.298;2022-08-18T04:06:32;12.23;;;11.02;;
22937;SDS011;11634;42.734;23.298;2022-08-18T04:09:01;12.40;;;10.98;;
22937;SDS011;11634;42.734;23.298;2022-08-18T04:11:30;15.00;;;10.60;;
22937;SDS011;11634;42.734;23.298;2022-08-18T04:13:57;12.05;;;10.32;;
22937;SDS011;11634;42.734;23.298;2022-08-18T04:16:27;14.63;;;10.60;;
22937;SDS011;11634;42.734;23.298;2022-08-18T04:18:54;11.15;;;10.00;;
22937;SDS011;11634;42.734;23.298;2022-08-18T04:21:24;11.30;;;9.95;;
22937;SDS011;11634;42.734;23.298;2022-08-18T04:23:49;10.80;;;9.05;;
22937;SDS011;11634;42.734;23.298;2022-08-18T04:26:15;10.82;;;9.77;;
22937;SDS011;11634;42.734;23.298;2022-08-18T04:28:42;10.40;;;9.45;;
22937;SDS011;11634;42.734;23.298;2022-08-18T04:31:11;10.00;;;9.00;;
22937;SDS011;11634;42.734;23.298;2022-08-18T04:33:39;9.52;;;8.60;;
22937;SDS011;11634;42.734;23.298;2022-08-18T04:36:06;10.48;;;9.00;;
22937;SDS011;11634;42.734;23.298;2022-08-18T04:38:37;9.77;;;8.10;;
22937;SDS011;11634;42.734;23.298;2022-08-18T04:41:06;9.30;;;8.40;;
22937;SDS011;11634;42.734;23.298;2022-08-18T04:43:35;8.82;;;7.85;;
22937;SDS011;11634;42.734;23.298;2022-08-18T04:46:01;9.38;;;8.40;;
22937;SDS011;11634;42.734;23.298;2022-08-18T04:48:30;11.52;;;7.85;;
22937;SDS011;11634;42.734;23.298;2022-08-18T04:51:09;8.35;;;7.47;;
22937;SDS011;11634;42.734;23.298;2022-08-18T04:53:42;9.50;;;8.25;;
22937;SDS011;11634;42.734;23.298;2022-08-18T04:58:46;10.82;;;7.00;;
22937;SDS011;11634;42.734;23.298;2022-08-18T05:01:16;7.50;;;6.90;;
22937;SDS011;11634;42.734;23.298;2022-08-18T05:03:46;9.40;;;6.45;;
22937;SDS011;11634;42.734;23.298;2022-08-18T05:06:13;10.13;;;6.80;;
22937;SDS011;11634;42.734;23.298;2022-08-18T05:08:39;7.55;;;6.63;;
22937;SDS011;11634;42.734;23.298;2022-08-18T05:11:05;9.65;;;6.75;;
22937;SDS011;11634;42.734;23.298;2022-08-18T05:13:31;9.98;;;6.38;;
22937;SDS011;11634;42.734;23.298;2022-08-18T05:16:00;7.40;;;6.70;;
22937;SDS011;11634;42.734;23.298;2022-08-18T05:18:32;8.57;;;7.45;;
22937;SDS011;11634;42.734;23.298;2022-08-18T05:21:02;8.10;;;7.40;;
22937;SDS011;11634;42.734;23.298;2022-08-18T05:23:28;8.35;;;7.40;;
22937;SDS011;11634;42.734;23.298;2022-08-18T05:25:57;10.57;;;7.57;;
22937;SDS011;11634;42.734;23.298;2022-08-18T05:28:24;8.23;;;7.43;;
22937;SDS011;11634;42.734;23.298;2022-08-18T05:30:51;13.27;;;7.65;;
22937;SDS011;11634;42.734;23.298;2022-08-18T05:33:16;8.88;;;7.13;;
22937;SDS011;11634;42.734;23.298;2022-08-18T05:35:43;10.32;;;7.32;;
22937;SDS011;11634;42.734;23.298;2022-08-18T05:41:06;13.52;;;8.25;;
22937;SDS011;11634;42.734;23.298;2022-08-18T05:43:48;15.52;;;7.75;;
22937;SDS011;11634;42.734;23.298;2022-08-18T05:46:14;16.20;;;8.02;;
22937;SDS011;11634;42.734;23.298;2022-08-18T05:48:40;15.23;;;8.52;;
22937;SDS011;11634;42.734;23.298;2022-08-18T05:51:19;17.80;;;8.27;;
22937;SDS011;11634;42.734;23.298;2022-08-18T05:53:53;25.08;;;8.85;;
22937;SDS011;11634;42.734;23.298;2022-08-18T05:56:37;25.48;;;8.43;;
22937;SDS011;11634;42.734;23.298;2022-08-18T05:59:19;25.58;;;8.25;;
22937;SDS011;11634;42.734;23.298;2022-08-18T06:01:50;17.83;;;7.85;;
22937;SDS011;11634;42.734;23.298;2022-08-18T06:04:29;16.60;;;7.28;;
22937;SDS011;11634;42.734;23.298;2022-08-18T06:07:21;15.80;;;6.82;;
22937;SDS011;11634;42.734;23.298;2022-08-18T06:09:52;16.10;;;7.13;;
22937;SDS011;11634;42.734;23.298;2022-08-18T06:14:53;12.32;;;6.78;;
22937;SDS011;11634;42.734;23.298;2022-08-18T06:37:55;17.23;;;7.72;;
22937;SDS011;11634;42.734;23.298;2022-08-18T06:45:15;25.55;;;8.25;;
22937;SDS011;11634;42.734;23.298;2022-08-18T06:48:16;21.10;;;7.70;;
22937;SDS011;11634;42.734;23.298;2022-08-18T06:50:59;22.73;;;7.72;;
22937;SDS011;11634;42.734;23.298;2022-08-18T06:56:19;16.92;;;7.95;;
22937;SDS011;11634;42.734;23.298;2022-08-18T06:58:48;21.48;;;7.43;;
22937;SDS011;11634;42.734;23.298;2022-08-18T07:01:14;19.70;;;7.22;;
22937;SDS011;11634;42.734;23.298;2022-08-18T07:03:43;22.50;;;7.50;;
22937;SDS011;11634;42.734;23.298;2022-08-18T07:08:43;19.23;;;7.32;;
22937;SDS011;11634;42.734;23.298;2022-08-18T07:13:39;22.08;;;6.90;;
22937;SDS011;11634;42.734;23.298;2022-08-18T07:16:17;20.27;;;6.93;;
22937;SDS011;11634;42.734;23.298;2022-08-18T07:18:45;21.73;;;6.50;;
22937;SDS011;11634;42.734;23.298;2022-08-18T07:21:23;12.85;;;6.57;;
22937;SDS011;11634;42.734;23.298;2022-08-18T07:23:57;15.13;;;6.40;;
22937;SDS011;11634;42.734;23.298;2022-08-18T07:32:42;9.38;;;6.10;;
22937;SDS011;11634;42.734;23.298;2022-08-18T07:35:12;6.72;;;5.75;;
22937;SDS011;11634;42.734;23.298;2022-08-18T07:37:53;8.48;;;5.80;;
22937;SDS011;11634;42.734;23.298;2022-08-18T07:40:37;7.28;;;6.03;;
22937;SDS011;11634;42.734;23.298;2022-08-18T07:46:30;7.05;;;5.40;;
22937;SDS011;11634;42.734;23.298;2022-08-18T07:48:57;6.88;;;5.38;;
22937;SDS011;11634;42.734;23.298;2022-08-18T07:51:33;7.80;;;5.70;;
22937;SDS011;11634;42.734;23.298;2022-08-18T07:54:25;8.40;;;5.50;;
22937;SDS011;11634;42.734;23.298;2022-08-18T08:05:14;7.10;;;5.32;;
22937;SDS011;11634;42.734;23.298;2022-08-18T08:13:00;7.45;;;5.90;;
22937;SDS011;11634;42.734;23.298;2022-08-18T08:18:17;7.28;;;5.35;;
22937;SDS011;11634;42.734;23.298;2022-08-18T08:20:59;6.80;;;5.03;;
22937;SDS011;11634;42.734;23.298;2022-08-18T08:28:58;8.25;;;5.03;;
22937;SDS011;11634;42.734;23.298;2022-08-18T08:34:25;6.57;;;4.65;;
22937;SDS011;11634;42.734;23.298;2022-08-18T08:37:02;6.43;;;4.68;;
22937;SDS011;11634;42.734;23.298;2022-08-18T08:42:42;7.50;;;4.15;;
22937;SDS011;11634;42.734;23.298;2022-08-18T08:45:25;7.65;;;4.50;;
22937;SDS011;11634;42.734;23.298;2022-08-18T08:50:24;6.32;;;3.97;;
22937;SDS011;11634;42.734;23.298;2022-08-18T08:52:53;4.88;;;4.40;;
22937;SDS011;11634;42.734;23.298;2022-08-18T08:55:31;7.03;;;4.55;;
22937;SDS011;11634;42.734;23.298;2022-08-18T08:58:11;5.60;;;4.18;;
22937;SDS011;11634;42.734;23.298;2022-08-18T09:00:59;10.52;;;4.50;;
22937;SDS011;11634;42.734;23.298;2022-08-18T09:23:07;6.90;;;4.50;;
22937;SDS011;11634;42.734;23.298;2022-08-18T09:28:10;9.55;;;4.70;;
22937;SDS011;11634;42.734;23.298;2022-08-18T09:30:52;6.07;;;4.20;;
22937;SDS011;11634;42.734;23.298;2022-08-18T09:39:42;4.60;;;4.10;;
22937;SDS011;11634;42.734;23.298;2022-08-18T09:45:39;5.43;;;4.45;;
22937;SDS011;11634;42.734;23.298;2022-08-18T09:50:38;4.65;;;4.22;;
22937;SDS011;11634;42.734;23.298;2022-08-18T09:56:56;8.32;;;4.60;;
22937;SDS011;11634;42.734;23.298;2022-08-18T09:59:13;6.47;;;3.65;;
22937;SDS011;11634;42.734;23.298;2022-08-18T10:02:02;6.07;;;4.10;;
22937;SDS011;11634;42.734;23.298;2022-08-18T10:04:35;4.75;;;4.07;;
22937;SDS011;11634;42.734;23.298;2022-08-18T10:10:28;4.78;;;4.30;;
22937;SDS011;11634;42.734;23.298;2022-08-18T10:18:48;13.10;;;4.07;;
22937;SDS011;11634;42.734;23.298;2022-08-18T10:28:55;3.90;;;3.40;;
22937;SDS011;11634;42.734;23.298;2022-08-18T10:31:25;4.15;;;3.53;;
22937;SDS011;11634;42.734;23.298;2022-08-18T10:33:54;3.70;;;3.33;;
22937;SDS011;11634;42.734;23.298;2022-08-18T10:39:04;6.70;;;3.55;;
22937;SDS011;11634;42.734;23.298;2022-08-18T10:41:44;3.90;;;3.60;;
22937;SDS011;11634;42.734;23.298;2022-08-18T10:44:17;4.03;;;3.50;;
22937;SDS011;11634;42.734;23.298;2022-08-18T10:46:46;4.22;;;3.10;;
22937;SDS011;11634;42.734;23.298;2022-08-18T10:49:20;3.92;;;3.55;;
22937;SDS011;11634;42.734;23.298;2022-08-18T10:51:56;6.03;;;3.58;;
22937;SDS011;11634;42.734;23.298;2022-08-18T11:03:19;5.45;;;3.45;;
22937;SDS011;11634;42.734;23.298;2022-08-18T11:05:59;4.00;;;3.60;;
22937;SDS011;11634;42.734;23.298;2022-08-18T11:08:30;4.03;;;3.40;;
22937;SDS011;11634;42.734;23.298;2022-08-18T11:11:06;5.43;;;3.50;;
22937;SDS011;11634;42.734;23.298;2022-08-18T11:19:11;4.15;;;3.45;;
22937;SDS011;11634;42.734;23.298;2022-08-18T11:21:40;3.70;;;3.40;;
22937;SDS011;11634;42.734;23.298;2022-08-18T11:24:10;3.70;;;3.25;;
22937;SDS011;11634;42.734;23.298;2022-08-18T11:26:56;5.93;;;3.53;;
22937;SDS011;11634;42.734;23.298;2022-08-18T11:32:18;3.80;;;3.45;;
22937;SDS011;11634;42.734;23.298;2022-08-18T11:34:49;4.60;;;3.60;;
22937;SDS011;11634;42.734;23.298;2022-08-18T11:37:41;3.75;;;3.40;;
22937;SDS011;11634;42.734;23.298;2022-08-18T11:45:58;4.97;;;3.47;;
22937;SDS011;11634;42.734;23.298;2022-08-18T11:48:44;4.32;;;3.60;;
22937;SDS011;11634;42.734;23.298;2022-08-18T12:04:09;4.03;;;3.63;;
22937;SDS011;11634;42.734;23.298;2022-08-18T12:09:19;5.85;;;3.45;;
22937;SDS011;11634;42.734;23.298;2022-08-18T12:11:50;5.28;;;3.22;;
22937;SDS011;11634;42.734;23.298;2022-08-18T12:14:22;5.65;;;4.30;;
22937;SDS011;11634;42.734;23.298;2022-08-18T12:16:50;4.35;;;3.95;;
22937;SDS011;11634;42.734;23.298;2022-08-18T12:19:16;5.38;;;4.05;;
22937;SDS011;11634;42.734;23.298;2022-08-18T12:21:44;5.53;;;3.75;;
22937;SDS011;11634;42.734;23.298;2022-08-18T12:24:18;3.58;;;3.33;;
22937;SDS011;11634;42.734;23.298;2022-08-18T12:26:47;4.13;;;3.72;;
22937;SDS011;11634;42.734;23.298;2022-08-18T12:29:15;5.72;;;3.60;;
22937;SDS011;11634;42.734;23.298;2022-08-18T12:31:45;4.22;;;3.83;;
22937;SDS011;11634;42.734;23.298;2022-08-18T12:34:12;4.20;;;3.80;;
22937;SDS011;11634;42.734;23.298;2022-08-18T12:36:38;3.95;;;3.55;;
22937;SDS011;11634;42.734;23.298;2022-08-18T12:39:04;4.85;;;4.20;;
22937;SDS011;11634;42.734;23.298;2022-08-18T12:41:30;3.97;;;3.40;;
22937;SDS011;11634;42.734;23.298;2022-08-18T12:43:56;7.63;;;4.18;;
22937;SDS011;11634;42.734;23.298;2022-08-18T12:46:21;5.00;;;4.00;;
22937;SDS011;11634;42.734;23.298;2022-08-18T12:48:47;4.10;;;3.65;;
22937;SDS011;11634;42.734;23.298;2022-08-18T12:51:14;6.05;;;4.10;;
22937;SDS011;11634;42.734;23.298;2022-08-18T12:53:40;5.20;;;3.83;;
22937;SDS011;11634;42.734;23.298;2022-08-18T12:56:07;7.03;;;3.85;;
22937;SDS011;11634;42.734;23.298;2022-08-18T12:58:57;4.10;;;3.67;;
22937;SDS011;11634;42.734;23.298;2022-08-18T13:01:24;6.57;;;4.28;;
22937;SDS011;11634;42.734;23.298;2022-08-18T13:03:59;4.35;;;3.95;;
22937;SDS011;11634;42.734;23.298;2022-08-18T13:06:26;4.70;;;3.72;;
22937;SDS011;11634;42.734;23.298;2022-08-18T13:08:52;3.50;;;3.20;;
22937;SDS011;11634;42.734;23.298;2022-08-18T13:11:20;3.65;;;3.35;;
22937;SDS011;11634;42.734;23.298;2022-08-18T13:13:47;3.90;;;3.60;;
22937;SDS011;11634;42.734;23.298;2022-08-18T13:16:13;4.80;;;4.18;;
22937;SDS011;11634;42.734;23.298;2022-08-18T13:18:40;7.30;;;3.67;;
22937;SDS011;11634;42.734;23.298;2022-08-18T13:21:06;4.45;;;3.92;;
22937;SDS011;11634;42.734;23.298;2022-08-18T13:23:34;6.53;;;4.07;;
22937;SDS011;11634;42.734;23.298;2022-08-18T13:26:00;3.80;;;3.50;;
22937;SDS011;11634;42.734;23.298;2022-08-18T13:28:28;4.30;;;3.75;;
22937;SDS011;11634;42.734;23.298;2022-08-18T13:30:55;5.40;;;4.38;;
22937;SDS011;11634;42.734;23.298;2022-08-18T13:33:21;7.22;;;4.20;;
22937;SDS011;11634;42.734;23.298;2022-08-18T13:35:46;5.88;;;3.70;;
22937;SDS011;11634;42.734;23.298;2022-08-18T13:38:13;4.55;;;3.90;;
22937;SDS011;11634;42.734;23.298;2022-08-18T13:40:40;4.45;;;3.80;;
22937;SDS011;11634;42.734;23.298;2022-08-18T13:43:28;3.75;;;3.30;;
22937;SDS011;11634;42.734;23.298;2022-08-18T13:45:56;5.88;;;3.67;;
22937;SDS011;11634;42.734;23.298;2022-08-18T13:48:25;4.32;;;3.75;;
22937;SDS011;11634;42.734;23.298;2022-08-18T13:50:53;4.63;;;3.40;;
22937;SDS011;11634;42.734;23.298;2022-08-18T13:53:27;4.55;;;3.85;;
22937;SDS011;11634;42.734;23.298;2022-08-18T13:55:54;4.28;;;3.42;;
22937;SDS011;11634;42.734;23.298;2022-08-18T13:58:23;4.78;;;3.60;;
22937;SDS011;11634;42.734;23.298;2022-08-18T14:01:00;7.10;;;3.95;;
22937;SDS011;11634;42.734;23.298;2022-08-18T14:03:28;4.57;;;3.97;;
22937;SDS011;11634;42.734;23.298;2022-08-18T14:05:55;5.72;;;4.00;;
22937;SDS011;11634;42.734;23.298;2022-08-18T14:08:29;5.07;;;3.97;;
22937;SDS011;11634;42.734;23.298;2022-08-18T14:10:57;4.80;;;4.10;;
22937;SDS011;11634;42.734;23.298;2022-08-18T14:13:46;3.97;;;3.58;;
22937;SDS011;11634;42.734;23.298;2022-08-18T14:16:15;4.63;;;3.78;;
22937;SDS011;11634;42.734;23.298;2022-08-18T14:18:41;10.55;;;4.43;;
22937;SDS011;11634;42.734;23.298;2022-08-18T14:21:07;5.72;;;3.83;;
22937;SDS011;11634;42.734;23.298;2022-08-18T14:23:51;4.55;;;4.15;;
22937;SDS011;11634;42.734;23.298;2022-08-18T14:26:35;4.32;;;3.85;;
22937;SDS011;11634;42.734;23.298;2022-08-18T14:29:13;4.50;;;4.10;;
22937;SDS011;11634;42.734;23.298;2022-08-18T14:31:40;4.25;;;3.88;;
22937;SDS011;11634;42.734;23.298;2022-08-18T14:34:07;4.75;;;4.20;;
22937;SDS011;11634;42.734;23.298;2022-08-18T14:36:33;4.22;;;3.75;;
22937;SDS011;11634;42.734;23.298;2022-08-18T14:38:59;5.28;;;3.70;;
22937;SDS011;11634;42.734;23.298;2022-08-18T14:41:26;4.28;;;3.97;;
22937;SDS011;11634;42.734;23.298;2022-08-18T14:43:53;4.50;;;4.07;;
22937;SDS011;11634;42.734;23.298;2022-08-18T14:46:20;4.88;;;4.10;;
22937;SDS011;11634;42.734;23.298;2022-08-18T14:48:47;4.15;;;3.65;;
22937;SDS011;11634;42.734;23.298;2022-08-18T14:51:13;4.07;;;3.78;;
22937;SDS011;11634;42.734;23.298;2022-08-18T14:53:39;5.60;;;4.43;;
22937;SDS011;11634;42.734;23.298;2022-08-18T14:56:05;4.43;;;3.80;;
22937;SDS011;11634;42.734;23.298;2022-08-18T14:58:32;4.35;;;3.92;;
22937;SDS011;11634;42.734;23.298;2022-08-18T15:01:00;5.13;;;4.10;;
22937;SDS011;11634;42.734;23.298;2022-08-18T15:03:30;5.68;;;3.90;;
22937;SDS011;11634;42.734;23.298;2022-08-18T15:05:56;5.50;;;4.13;;
22937;SDS011;11634;42.734;23.298;2022-08-18T15:08:22;4.63;;;4.20;;
22937;SDS011;11634;42.734;23.298;2022-08-18T15:10:48;4.43;;;4.00;;
22937;SDS011;11634;42.734;23.298;2022-08-18T15:13:14;4.38;;;3.83;;
22937;SDS011;11634;42.734;23.298;2022-08-18T15:15:40;4.22;;;3.78;;
22937;SDS011;11634;42.734;23.298;2022-08-18T15:18:09;4.63;;;4.13;;
22937;SDS011;11634;42.734;23.298;2022-08-18T15:20:35;8.73;;;4.60;;
22937;SDS011;11634;42.734;23.298;2022-08-18T15:23:23;4.40;;;3.72;;
22937;SDS011;11634;42.734;23.298;2022-08-18T15:26:07;4.07;;;3.78;;
22937;SDS011;11634;42.734;23.298;2022-08-18T15:28:37;5.22;;;4.05;;
22937;SDS011;11634;42.734;23.298;2022-08-18T15:31:10;4.45;;;4.05;;
22937;SDS011;11634;42.734;23.298;2022-08-18T15:33:36;6.45;;;4.10;;
22937;SDS011;11634;42.734;23.298;2022-08-18T15:36:01;7.05;;;4.28;;
22937;SDS011;11634;42.734;23.298;2022-08-18T15:38:29;5.68;;;4.57;;
22937;SDS011;11634;42.734;23.298;2022-08-18T15:40:56;4.00;;;3.70;;
22937;SDS011;11634;42.734;23.298;2022-08-18T15:43:25;4.88;;;4.38;;
22937;SDS011;11634;42.734;23.298;2022-08-18T15:45:52;4.88;;;4.40;;
22937;SDS011;11634;42.734;23.298;2022-08-18T15:48:19;5.35;;;4.18;;
22937;SDS011;11634;42.734;23.298;2022-08-18T15:50:48;4.45;;;3.50;;
22937;SDS011;11634;42.734;23.298;2022-08-18T15:53:15;6.63;;;3.75;;
22937;SDS011;11634;42.734;23.298;2022-08-18T15:55:42;5.25;;;3.70;;
22937;SDS011;11634;42.734;23.298;2022-08-18T15:58:09;5.80;;;4.43;;
22937;SDS011;11634;42.734;23.298;2022-08-18T16:00:36;5.63;;;4.20;;
22937;SDS011;11634;42.734;23.298;2022-08-18T16:03:05;5.20;;;3.85;;
22937;SDS011;11634;42.734;23.298;2022-08-18T16:05:34;4.50;;;4.10;;
22937;SDS011;11634;42.734;23.298;2022-08-18T16:08:03;4.63;;;4.10;;
22937;SDS011;11634;42.734;23.298;2022-08-18T16:10:32;4.10;;;3.70;;
22937;SDS011;11634;42.734;23.298;2022-08-18T16:12:59;6.57;;;4.55;;
22937;SDS011;11634;42.734;23.298;2022-08-18T16:15:26;4.68;;;4.20;;
22937;SDS011;11634;42.734;23.298;2022-08-18T16:17:53;4.57;;;4.10;;
22937;SDS011;11634;42.734;23.298;2022-08-18T16:20:19;5.13;;;3.90;;
22937;SDS011;11634;42.734;23.298;2022-08-18T16:22:48;5.45;;;3.95;;
22937;SDS011;11634;42.734;23.298;2022-08-18T16:25:14;4.45;;;4.03;;
22937;SDS011;11634;42.734;23.298;2022-08-18T16:27:46;4.78;;;3.70;;
22937;SDS011;11634;42.734;23.298;2022-08-18T16:30:15;4.80;;;4.40;;
22937;SDS011;11634;42.734;23.298;2022-08-18T16:32:49;4.70;;;3.85;;
22937;SDS011;11634;42.734;23.298;2022-08-18T16:35:17;4.22;;;3.92;;
22937;SDS011;11634;42.734;23.298;2022-08-18T16:37:44;4.97;;;4.03;;
22937;SDS011;11634;42.734;23.298;2022-08-18T16:40:14;4.70;;;4.05;;
22937;SDS011;11634;42.734;23.298;2022-08-18T16:42:41;5.95;;;4.13;;
22937;SDS011;11634;42.734;23.298;2022-08-18T16:45:07;4.47;;;3.80;;
22937;SDS011;11634;42.734;23.298;2022-08-18T16:47:35;6.40;;;4.28;;
22937;SDS011;11634;42.734;23.298;2022-08-18T16:50:06;4.80;;;4.05;;
22937;SDS011;11634;42.734;23.298;2022-08-18T16:52:34;4.50;;;4.10;;
22937;SDS011;11634;42.734;23.298;2022-08-18T16:55:00;4.63;;;4.00;;
22937;SDS011;11634;42.734;23.298;2022-08-18T16:57:26;6.35;;;4.10;;
22937;SDS011;11634;42.734;23.298;2022-08-18T17:00:10;4.82;;;4.10;;
22937;SDS011;11634;42.734;23.298;2022-08-18T17:02:54;4.40;;;3.92;;
22937;SDS011;11634;42.734;23.298;2022-08-18T17:05:38;6.07;;;4.05;;
22937;SDS011;11634;42.734;23.298;2022-08-18T17:08:04;5.13;;;3.92;;
22937;SDS011;11634;42.734;23.298;2022-08-18T17:10:33;4.10;;;3.70;;
22937;SDS011;11634;42.734;23.298;2022-08-18T17:13:03;4.18;;;3.78;;
22937;SDS011;11634;42.734;23.298;2022-08-18T17:15:29;5.05;;;4.03;;
22937;SDS011;11634;42.734;23.298;2022-08-18T17:17:59;6.07;;;3.80;;
22937;SDS011;11634;42.734;23.298;2022-08-18T17:20:25;6.95;;;4.45;;
22937;SDS011;11634;42.734;23.298;2022-08-18T17:22:51;4.10;;;3.70;;
22937;SDS011;11634;42.734;23.298;2022-08-18T17:25:17;5.85;;;3.95;;
22937;SDS011;11634;42.734;23.298;2022-08-18T17:27:47;5.97;;;3.63;;
22937;SDS011;11634;42.734;23.298;2022-08-18T17:30:14;7.10;;;3.80;;
22937;SDS011;11634;42.734;23.298;2022-08-18T17:32:44;7.15;;;4.22;;
22937;SDS011;11634;42.734;23.298;2022-08-18T17:35:33;4.50;;;3.92;;
22937;SDS011;11634;42.734;23.298;2022-08-18T17:38:02;5.90;;;4.32;;
22937;SDS011;11634;42.734;23.298;2022-08-18T17:40:44;5.35;;;3.97;;
22937;SDS011;11634;42.734;23.298;2022-08-18T17:43:16;6.78;;;4.22;;
22937;SDS011;11634;42.734;23.298;2022-08-18T17:45:45;4.45;;;3.75;;